sensor_id;sensor_type;location;lat;lon;timestamp;pressure;altitude;pressure_sealevel;temperature
66403;BMP180;53212;52.112;5.144;2023-02-26T00:01:02;101882.80;;;1.00
66403;BMP180;53212;52.112;5.144;2023-02-26T00:03:28;101886.20;;;1.00
66403;BMP180;53212;52.112;5.144;2023-02-26T00:05:58;101890.20;;;1.00
66403;BMP180;53212;52.112;5.144;2023-02-26T00:08:24;101902.80;;;1.10
66403;BMP180;53212;52.112;5.144;2023-02-26T00:10:49;101901.00;;;1.10
66403;BMP180;53212;52.112;5.144;2023-02-26T00:13:15;101898.60;;;1.10
66403;BMP180;53212;52.112;5.144;2023-02-26T00:15:41;101896.00;;;1.10
66403;BMP180;53212;52.112;5.144;2023-02-26T00:18:12;101898.00;;;1.10
66403;BMP180;53212;52.112;5.144;2023-02-26T00:20:40;101903.40;;;1.20
66403;BMP180;53212;52.112;5.144;2023-02-26T00:23:11;101910.40;;;1.20
66403;BMP180;53212;52.112;5.144;2023-02-26T00:25:39;101917.40;;;1.30
66403;BMP180;53212;52.112;5.144;2023-02-26T00:28:07;101914.20;;;1.30
66403;BMP180;53212;52.112;5.144;2023-02-26T00:30:33;101922.60;;;1.30
66403;BMP180;53212;52.112;5.144;2023-02-26T00:32:59;101926.40;;;1.28
66403;BMP180;53212;52.112;5.144;2023-02-26T00:35:25;101930.40;;;1.30
66403;BMP180;53212;52.112;5.144;2023-02-26T00:38:02;101933.00;;;1.30
66403;BMP180;53212;52.112;5.144;2023-02-26T00:40:49;101940.40;;;1.26
66403;BMP180;53212;52.112;5.144;2023-02-26T00:43:23;101952.60;;;1.30
66403;BMP180;53212;52.112;5.144;2023-02-26T00:49:13;101960.40;;;1.30
66403;BMP180;53212;52.112;5.144;2023-02-26T00:51:58;101958.00;;;1.30
66403;BMP180;53212;52.112;5.144;2023-02-26T00:54:28;101960.20;;;1.38
66403;BMP180;53212;52.112;5.144;2023-02-26T00:56:56;101960.40;;;1.40
66403;BMP180;53212;52.112;5.144;2023-02-26T00:59:23;101960.00;;;1.40
66403;BMP180;53212;52.112;5.144;2023-02-26T01:01:50;101966.80;;;1.30
66403;BMP180;53212;52.112;5.144;2023-02-26T01:04:18;101967.60;;;1.30
66403;BMP180;53212;52.112;5.144;2023-02-26T01:06:48;101968.80;;;1.30
66403;BMP180;53212;52.112;5.144;2023-02-26T01:09:32;101962.60;;;1.20
66403;BMP180;53212;52.112;5.144;2023-02-26T01:12:03;101967.20;;;1.20
66403;BMP180;53212;52.112;5.144;2023-02-26T01:14:29;101967.40;;;1.20
66403;BMP180;53212;52.112;5.144;2023-02-26T01:17:24;101971.80;;;1.20
66403;BMP180;53212;52.112;5.144;2023-02-26T01:20:19;101971.40;;;1.10
66403;BMP180;53212;52.112;5.144;2023-02-26T01:22:51;101973.60;;;1.10
66403;BMP180;53212;52.112;5.144;2023-02-26T01:28:07;101980.20;;;1.00
66403;BMP180;53212;52.112;5.144;2023-02-26T01:30:33;101979.40;;;0.90
66403;BMP180;53212;52.112;5.144;2023-02-26T01:33:27;101985.60;;;0.90
66403;BMP180;53212;52.112;5.144;2023-02-26T01:36:08;101988.20;;;0.90
66403;BMP180;53212;52.112;5.144;2023-02-26T01:41:39;101996.00;;;0.80
66403;BMP180;53212;52.112;5.144;2023-02-26T01:44:28;102004.40;;;0.80
66403;BMP180;53212;52.112;5.144;2023-02-26T01:49:37;102007.40;;;0.70
66403;BMP180;53212;52.112;5.144;2023-02-26T01:55:22;102009.00;;;0.62
66403;BMP180;53212;52.112;5.144;2023-02-26T01:57:51;102012.40;;;0.60
66403;BMP180;53212;52.112;5.144;2023-02-26T02:00:18;102010.20;;;0.60
66403;BMP180;53212;52.112;5.144;2023-02-26T02:02:44;102017.20;;;0.50
66403;BMP180;53212;52.112;5.144;2023-02-26T02:05:21;102015.60;;;0.50
66403;BMP180;53212;52.112;5.144;2023-02-26T02:07:49;102022.60;;;0.50
66403;BMP180;53212;52.112;5.144;2023-02-26T02:10:14;102020.20;;;0.40
66403;BMP180;53212;52.112;5.144;2023-02-26T02:15:53;102019.80;;;0.30
66403;BMP180;53212;52.112;5.144;2023-02-26T02:24:16;102031.40;;;0.20
66403;BMP180;53212;52.112;5.144;2023-02-26T02:29:44;102033.40;;;0.10
66403;BMP180;53212;52.112;5.144;2023-02-26T02:32:42;102037.40;;;0.06
66403;BMP180;53212;52.112;5.144;2023-02-26T02:37:45;102036.60;;;0.00
66403;BMP180;53212;52.112;5.144;2023-02-26T02:40:18;102035.20;;;0.00
66403;BMP180;53212;52.112;5.144;2023-02-26T02:42:50;102038.80;;;0.00
66403;BMP180;53212;52.112;5.144;2023-02-26T02:45:50;102037.00;;;0.00
66403;BMP180;53212;52.112;5.144;2023-02-26T02:48:29;102041.80;;;-0.10
66403;BMP180;53212;52.112;5.144;2023-02-26T02:51:00;102050.20;;;-0.10
66403;BMP180;53212;52.112;5.144;2023-02-26T02:53:48;102053.20;;;-0.08
66403;BMP180;53212;52.112;5.144;2023-02-26T02:56:32;102056.20;;;0.00
66403;BMP180;53212;52.112;5.144;2023-02-26T02:59:33;102054.20;;;-0.04
66403;BMP180;53212;52.112;5.144;2023-02-26T03:05:02;102064.40;;;-0.10
66403;BMP180;53212;52.112;5.144;2023-02-26T03:07:33;102069.40;;;-0.10
66403;BMP180;53212;52.112;5.144;2023-02-26T03:10:00;102071.00;;;-0.10
66403;BMP180;53212;52.112;5.144;2023-02-26T03:12:31;102074.20;;;-0.10
66403;BMP180;53212;52.112;5.144;2023-02-26T03:14:57;102075.80;;;-0.16
66403;BMP180;53212;52.112;5.144;2023-02-26T03:17:32;102079.40;;;-0.20
66403;BMP180;53212;52.112;5.144;2023-02-26T03:20:23;102086.20;;;-0.20
66403;BMP180;53212;52.112;5.144;2023-02-26T03:25:55;102083.00;;;-0.20
66403;BMP180;53212;52.112;5.144;2023-02-26T03:28:39;102083.20;;;-0.20
66403;BMP180;53212;52.112;5.144;2023-02-26T03:31:44;102079.80;;;-0.20
66403;BMP180;53212;52.112;5.144;2023-02-26T03:35:02;102089.20;;;-0.20
66403;BMP180;53212;52.112;5.144;2023-02-26T03:37:43;102095.60;;;-0.20
66403;BMP180;53212;52.112;5.144;2023-02-26T03:40:23;102102.40;;;-0.20
66403;BMP180;53212;52.112;5.144;2023-02-26T03:45:28;102110.00;;;-0.30
66403;BMP180;53212;52.112;5.144;2023-02-26T03:47:56;102110.40;;;-0.32
66403;BMP180;53212;52.112;5.144;2023-02-26T03:50:35;102109.00;;;-0.40
66403;BMP180;53212;52.112;5.144;2023-02-26T03:53:06;102111.60;;;-0.40
66403;BMP180;53212;52.112;5.144;2023-02-26T03:56:03;102110.00;;;-0.40
66403;BMP180;53212;52.112;5.144;2023-02-26T03:58:30;102108.40;;;-0.40
66403;BMP180;53212;52.112;5.144;2023-02-26T04:01:07;102114.60;;;-0.42
66403;BMP180;53212;52.112;5.144;2023-02-26T04:03:46;102119.20;;;-0.40
66403;BMP180;53212;52.112;5.144;2023-02-26T04:06:13;102122.40;;;-0.46
66403;BMP180;53212;52.112;5.144;2023-02-26T04:08:39;102128.00;;;-0.50
66403;BMP180;53212;52.112;5.144;2023-02-26T04:11:12;102134.60;;;-0.50
66403;BMP180;53212;52.112;5.144;2023-02-26T04:13:39;102136.60;;;-0.50
66403;BMP180;53212;52.112;5.144;2023-02-26T04:16:04;102137.80;;;-0.50
66403;BMP180;53212;52.112;5.144;2023-02-26T04:18:30;102143.20;;;-0.58
66403;BMP180;53212;52.112;5.144;2023-02-26T04:20:56;102141.80;;;-0.60
66403;BMP180;53212;52.112;5.144;2023-02-26T04:23:21;102146.40;;;-0.60
66403;BMP180;53212;52.112;5.144;2023-02-26T04:25:47;102149.60;;;-0.60
66403;BMP180;53212;52.112;5.144;2023-02-26T04:28:12;102154.20;;;-0.70
66403;BMP180;53212;52.112;5.144;2023-02-26T04:30:38;102162.60;;;-0.70
66403;BMP180;53212;52.112;5.144;2023-02-26T04:33:03;102159.00;;;-0.70
66403;BMP180;53212;52.112;5.144;2023-02-26T04:35:29;102160.80;;;-0.70
66403;BMP180;53212;52.112;5.144;2023-02-26T04:37:54;102166.20;;;-0.70
66403;BMP180;53212;52.112;5.144;2023-02-26T04:40:19;102166.00;;;-0.70
66403;BMP180;53212;52.112;5.144;2023-02-26T04:42:45;102171.40;;;-0.70
66403;BMP180;53212;52.112;5.144;2023-02-26T04:45:10;102170.00;;;-0.80
66403;BMP180;53212;52.112;5.144;2023-02-26T04:47:36;102174.20;;;-0.80
66403;BMP180;53212;52.112;5.144;2023-02-26T04:50:02;102173.60;;;-0.80
66403;BMP180;53212;52.112;5.144;2023-02-26T04:52:27;102175.20;;;-0.90
66403;BMP180;53212;52.112;5.144;2023-02-26T04:54:53;102176.40;;;-0.90
66403;BMP180;53212;52.112;5.144;2023-02-26T04:57:18;102180.00;;;-0.90
66403;BMP180;53212;52.112;5.144;2023-02-26T04:59:43;102180.40;;;-0.90
66403;BMP180;53212;52.112;5.144;2023-02-26T05:02:09;102184.20;;;-0.90
66403;BMP180;53212;52.112;5.144;2023-02-26T05:04:34;102180.60;;;-0.90
66403;BMP180;53212;52.112;5.144;2023-02-26T05:07:00;102187.80;;;-0.90
66403;BMP180;53212;52.112;5.144;2023-02-26T05:09:25;102195.60;;;-0.98
66403;BMP180;53212;52.112;5.144;2023-02-26T05:11:51;102194.60;;;-1.00
66403;BMP180;53212;52.112;5.144;2023-02-26T05:14:16;102200.40;;;-1.00
66403;BMP180;53212;52.112;5.144;2023-02-26T05:16:42;102202.20;;;-1.06
66403;BMP180;53212;52.112;5.144;2023-02-26T05:19:07;102206.80;;;-1.10
66403;BMP180;53212;52.112;5.144;2023-02-26T05:21:33;102212.20;;;-1.10
66403;BMP180;53212;52.112;5.144;2023-02-26T05:23:58;102220.20;;;-1.10
66403;BMP180;53212;52.112;5.144;2023-02-26T05:26:24;102222.60;;;-1.10
66403;BMP180;53212;52.112;5.144;2023-02-26T05:28:49;102224.00;;;-1.10
66403;BMP180;53212;52.112;5.144;2023-02-26T05:31:14;102221.40;;;-1.16
66403;BMP180;53212;52.112;5.144;2023-02-26T05:33:41;102227.60;;;-1.20
66403;BMP180;53212;52.112;5.144;2023-02-26T05:36:07;102236.40;;;-1.20
66403;BMP180;53212;52.112;5.144;2023-02-26T05:38:34;102237.00;;;-1.24
66403;BMP180;53212;52.112;5.144;2023-02-26T05:41:00;102244.60;;;-1.30
66403;BMP180;53212;52.112;5.144;2023-02-26T05:43:26;102246.20;;;-1.30
66403;BMP180;53212;52.112;5.144;2023-02-26T05:45:53;102246.00;;;-1.30
66403;BMP180;53212;52.112;5.144;2023-02-26T05:48:20;102250.40;;;-1.40
66403;BMP180;53212;52.112;5.144;2023-02-26T05:50:49;102251.60;;;-1.40
66403;BMP180;53212;52.112;5.144;2023-02-26T05:53:14;102259.80;;;-1.40
66403;BMP180;53212;52.112;5.144;2023-02-26T05:55:40;102261.20;;;-1.44
66403;BMP180;53212;52.112;5.144;2023-02-26T05:58:06;102267.40;;;-1.50
66403;BMP180;53212;52.112;5.144;2023-02-26T06:00:31;102267.20;;;-1.50
66403;BMP180;53212;52.112;5.144;2023-02-26T06:02:57;102272.20;;;-1.50
66403;BMP180;53212;52.112;5.144;2023-02-26T06:05:22;102275.80;;;-1.50
66403;BMP180;53212;52.112;5.144;2023-02-26T06:07:48;102279.00;;;-1.60
66403;BMP180;53212;52.112;5.144;2023-02-26T06:10:13;102280.80;;;-1.60
66403;BMP180;53212;52.112;5.144;2023-02-26T06:12:39;102288.20;;;-1.70
66403;BMP180;53212;52.112;5.144;2023-02-26T06:15:06;102289.20;;;-1.70
66403;BMP180;53212;52.112;5.144;2023-02-26T06:17:33;102290.60;;;-1.72
66403;BMP180;53212;52.112;5.144;2023-02-26T06:19:59;102291.00;;;-1.80
66403;BMP180;53212;52.112;5.144;2023-02-26T06:22:24;102298.20;;;-1.80
66403;BMP180;53212;52.112;5.144;2023-02-26T06:24:50;102301.00;;;-1.80
66403;BMP180;53212;52.112;5.144;2023-02-26T06:27:15;102297.40;;;-1.80
66403;BMP180;53212;52.112;5.144;2023-02-26T06:29:41;102301.80;;;-1.80
66403;BMP180;53212;52.112;5.144;2023-02-26T06:32:07;102307.60;;;-1.80
66403;BMP180;53212;52.112;5.144;2023-02-26T06:34:32;102309.40;;;-1.80
66403;BMP180;53212;52.112;5.144;2023-02-26T06:36:58;102311.80;;;-1.80
66403;BMP180;53212;52.112;5.144;2023-02-26T06:39:23;102314.00;;;-1.80
66403;BMP180;53212;52.112;5.144;2023-02-26T06:41:49;102319.40;;;-1.80
66403;BMP180;53212;52.112;5.144;2023-02-26T06:44:14;102327.00;;;-1.78
66403;BMP180;53212;52.112;5.144;2023-02-26T06:46:40;102330.40;;;-1.76
66403;BMP180;53212;52.112;5.144;2023-02-26T06:49:06;102332.00;;;-1.70
66403;BMP180;53212;52.112;5.144;2023-02-26T06:51:31;102335.20;;;-1.70
66403;BMP180;53212;52.112;5.144;2023-02-26T06:53:56;102337.20;;;-1.60
66403;BMP180;53212;52.112;5.144;2023-02-26T06:56:23;102343.60;;;-1.60
66403;BMP180;53212;52.112;5.144;2023-02-26T06:58:48;102350.60;;;-1.58
66403;BMP180;53212;52.112;5.144;2023-02-26T07:01:14;102352.60;;;-1.50
66403;BMP180;53212;52.112;5.144;2023-02-26T07:03:40;102354.40;;;-1.50
66403;BMP180;53212;52.112;5.144;2023-02-26T07:06:06;102354.20;;;-1.50
66403;BMP180;53212;52.112;5.144;2023-02-26T07:08:33;102359.60;;;-1.42
66403;BMP180;53212;52.112;5.144;2023-02-26T07:10:59;102368.00;;;-1.40
66403;BMP180;53212;52.112;5.144;2023-02-26T07:13:25;102372.80;;;-1.34
66403;BMP180;53212;52.112;5.144;2023-02-26T07:15:50;102370.80;;;-1.30
66403;BMP180;53212;52.112;5.144;2023-02-26T07:18:16;102375.80;;;-1.22
66403;BMP180;53212;52.112;5.144;2023-02-26T07:20:42;102378.20;;;-1.20
66403;BMP180;53212;52.112;5.144;2023-02-26T07:23:08;102380.60;;;-1.10
66403;BMP180;53212;52.112;5.144;2023-02-26T07:25:33;102390.40;;;-1.10
66403;BMP180;53212;52.112;5.144;2023-02-26T07:27:59;102390.20;;;-1.00
66403;BMP180;53212;52.112;5.144;2023-02-26T07:30:25;102390.20;;;-0.96
66403;BMP180;53212;52.112;5.144;2023-02-26T07:32:50;102398.60;;;-0.90
66403;BMP180;53212;52.112;5.144;2023-02-26T07:35:16;102395.20;;;-0.80
66403;BMP180;53212;52.112;5.144;2023-02-26T07:37:41;102395.80;;;-0.70
66403;BMP180;53212;52.112;5.144;2023-02-26T07:40:09;102393.80;;;-0.70
66403;BMP180;53212;52.112;5.144;2023-02-26T07:42:35;102403.80;;;-0.60
66403;BMP180;53212;52.112;5.144;2023-02-26T07:45:00;102409.00;;;-0.52
66403;BMP180;53212;52.112;5.144;2023-02-26T07:47:27;102410.00;;;-0.50
66403;BMP180;53212;52.112;5.144;2023-02-26T07:49:55;102411.80;;;-0.40
66403;BMP180;53212;52.112;5.144;2023-02-26T07:52:21;102414.40;;;-0.30
66403;BMP180;53212;52.112;5.144;2023-02-26T07:54:46;102415.40;;;-0.28
66403;BMP180;53212;52.112;5.144;2023-02-26T07:57:12;102419.80;;;-0.20
66403;BMP180;53212;52.112;5.144;2023-02-26T07:59:37;102429.80;;;-0.10
66403;BMP180;53212;52.112;5.144;2023-02-26T08:02:04;102428.80;;;0.00
66403;BMP180;53212;52.112;5.144;2023-02-26T08:04:30;102427.60;;;0.10
66403;BMP180;53212;52.112;5.144;2023-02-26T08:06:58;102429.40;;;0.20
66403;BMP180;53212;52.112;5.144;2023-02-26T08:09:26;102434.60;;;0.30
66403;BMP180;53212;52.112;5.144;2023-02-26T08:11:51;102436.40;;;0.30
66403;BMP180;53212;52.112;5.144;2023-02-26T08:14:17;102443.60;;;0.40
66403;BMP180;53212;52.112;5.144;2023-02-26T08:16:42;102445.40;;;0.50
66403;BMP180;53212;52.112;5.144;2023-02-26T08:19:08;102455.80;;;0.60
66403;BMP180;53212;52.112;5.144;2023-02-26T08:21:33;102462.80;;;0.62
66403;BMP180;53212;52.112;5.144;2023-02-26T08:23:59;102463.20;;;0.70
66403;BMP180;53212;52.112;5.144;2023-02-26T08:26:25;102458.40;;;0.80
66403;BMP180;53212;52.112;5.144;2023-02-26T08:28:50;102463.40;;;0.90
66403;BMP180;53212;52.112;5.144;2023-02-26T08:31:16;102469.20;;;1.00
66403;BMP180;53212;52.112;5.144;2023-02-26T08:33:42;102477.20;;;1.00
66403;BMP180;53212;52.112;5.144;2023-02-26T08:36:10;102487.00;;;1.10
66403;BMP180;53212;52.112;5.144;2023-02-26T08:38:35;102481.80;;;1.20
66403;BMP180;53212;52.112;5.144;2023-02-26T08:41:01;102480.80;;;1.22
66403;BMP180;53212;52.112;5.144;2023-02-26T08:43:27;102486.80;;;1.30
66403;BMP180;53212;52.112;5.144;2023-02-26T08:45:56;102485.80;;;1.40
66403;BMP180;53212;52.112;5.144;2023-02-26T08:48:22;102494.80;;;1.40
66403;BMP180;53212;52.112;5.144;2023-02-26T08:50:49;102500.80;;;1.50
66403;BMP180;53212;52.112;5.144;2023-02-26T08:53:15;102502.00;;;1.50
66403;BMP180;53212;52.112;5.144;2023-02-26T08:55:40;102499.80;;;1.60
66403;BMP180;53212;52.112;5.144;2023-02-26T08:58:09;102510.20;;;1.68
66403;BMP180;53212;52.112;5.144;2023-02-26T09:00:34;102509.60;;;1.70
66403;BMP180;53212;52.112;5.144;2023-02-26T09:03:00;102516.60;;;1.80
66403;BMP180;53212;52.112;5.144;2023-02-26T09:05:25;102521.00;;;1.80
66403;BMP180;53212;52.112;5.144;2023-02-26T09:07:51;102517.00;;;1.90
66403;BMP180;53212;52.112;5.144;2023-02-26T09:10:16;102519.60;;;1.98
66403;BMP180;53212;52.112;5.144;2023-02-26T09:12:42;102522.20;;;2.00
66403;BMP180;53212;52.112;5.144;2023-02-26T09:15:10;102527.20;;;2.10
66403;BMP180;53212;52.112;5.144;2023-02-26T09:17:36;102519.60;;;2.20
66403;BMP180;53212;52.112;5.144;2023-02-26T09:20:03;102529.80;;;2.24
66403;BMP180;53212;52.112;5.144;2023-02-26T09:22:29;102535.00;;;2.30
66403;BMP180;53212;52.112;5.144;2023-02-26T09:24:54;102531.60;;;2.40
66403;BMP180;53212;52.112;5.144;2023-02-26T09:27:20;102536.60;;;2.40
66403;BMP180;53212;52.112;5.144;2023-02-26T09:29:46;102540.00;;;2.50
66403;BMP180;53212;52.112;5.144;2023-02-26T09:32:11;102541.80;;;2.58
66403;BMP180;53212;52.112;5.144;2023-02-26T09:34:37;102539.40;;;2.60
66403;BMP180;53212;52.112;5.144;2023-02-26T09:37:08;102543.80;;;2.70
66403;BMP180;53212;52.112;5.144;2023-02-26T09:39:34;102543.00;;;2.70
66403;BMP180;53212;52.112;5.144;2023-02-26T09:45:33;102544.20;;;2.80
66403;BMP180;53212;52.112;5.144;2023-02-26T09:48:03;102541.60;;;2.90
66403;BMP180;53212;52.112;5.144;2023-02-26T09:50:46;102544.00;;;2.96
66403;BMP180;53212;52.112;5.144;2023-02-26T09:53:29;102552.20;;;3.02
66403;BMP180;53212;52.112;5.144;2023-02-26T09:56:16;102556.00;;;3.10
66403;BMP180;53212;52.112;5.144;2023-02-26T09:58:44;102561.80;;;3.16
66403;BMP180;53212;52.112;5.144;2023-02-26T10:01:51;102561.60;;;3.20
66403;BMP180;53212;52.112;5.144;2023-02-26T10:04:55;102559.00;;;3.30
66403;BMP180;53212;52.112;5.144;2023-02-26T10:07:56;102565.40;;;3.30
66403;BMP180;53212;52.112;5.144;2023-02-26T10:11:02;102577.40;;;3.40
66403;BMP180;53212;52.112;5.144;2023-02-26T10:13:45;102584.20;;;3.42
66403;BMP180;53212;52.112;5.144;2023-02-26T10:16:20;102588.20;;;3.50
66403;BMP180;53212;52.112;5.144;2023-02-26T10:19:15;102584.60;;;3.50
66403;BMP180;53212;52.112;5.144;2023-02-26T10:21:51;102588.20;;;3.60
66403;BMP180;53212;52.112;5.144;2023-02-26T10:24:26;102582.40;;;3.62
66403;BMP180;53212;52.112;5.144;2023-02-26T10:27:04;102594.00;;;3.70
66403;BMP180;53212;52.112;5.144;2023-02-26T10:29:41;102587.60;;;3.78
66403;BMP180;53212;52.112;5.144;2023-02-26T10:32:35;102599.60;;;3.80
66403;BMP180;53212;52.112;5.144;2023-02-26T10:35:09;102603.00;;;3.88
66403;BMP180;53212;52.112;5.144;2023-02-26T10:37:57;102602.80;;;3.90
66403;BMP180;53212;52.112;5.144;2023-02-26T10:51:24;102615.00;;;4.40
66403;BMP180;53212;52.112;5.144;2023-02-26T10:53:59;102623.00;;;4.50
66403;BMP180;53212;52.112;5.144;2023-02-26T10:56:30;102618.20;;;4.50
66403;BMP180;53212;52.112;5.144;2023-02-26T10:58:56;102613.20;;;4.52
66403;BMP180;53212;52.112;5.144;2023-02-26T11:01:24;102614.80;;;4.60
66403;BMP180;53212;52.112;5.144;2023-02-26T11:03:58;102621.20;;;4.66
66403;BMP180;53212;52.112;5.144;2023-02-26T11:06:48;102617.80;;;4.70
66403;BMP180;53212;52.112;5.144;2023-02-26T11:09:23;102620.80;;;4.70
66403;BMP180;53212;52.112;5.144;2023-02-26T11:11:54;102631.40;;;4.80
66403;BMP180;53212;52.112;5.144;2023-02-26T11:14:21;102621.60;;;4.88
66403;BMP180;53212;52.112;5.144;2023-02-26T11:16:54;102634.40;;;4.90
66403;BMP180;53212;52.112;5.144;2023-02-26T11:19:31;102637.20;;;5.00
66403;BMP180;53212;52.112;5.144;2023-02-26T11:21:58;102635.20;;;5.00
66403;BMP180;53212;52.112;5.144;2023-02-26T11:24:47;102624.40;;;5.04
66403;BMP180;53212;52.112;5.144;2023-02-26T11:27:17;102630.40;;;5.00
66403;BMP180;53212;52.112;5.144;2023-02-26T11:29:48;102631.20;;;5.00
66403;BMP180;53212;52.112;5.144;2023-02-26T11:32:28;102627.60;;;5.10
66403;BMP180;53212;52.112;5.144;2023-02-26T11:34:54;102617.40;;;5.20
66403;BMP180;53212;52.112;5.144;2023-02-26T11:37:27;102624.80;;;5.20
66403;BMP180;53212;52.112;5.144;2023-02-26T11:39:57;102634.00;;;5.30
66403;BMP180;53212;52.112;5.144;2023-02-26T11:42:25;102617.80;;;5.40
66403;BMP180;53212;52.112;5.144;2023-02-26T11:44:51;102611.60;;;5.50
66403;BMP180;53212;52.112;5.144;2023-02-26T11:47:30;102613.40;;;5.50
66403;BMP180;53212;52.112;5.144;2023-02-26T11:50:04;102623.80;;;5.50
66403;BMP180;53212;52.112;5.144;2023-02-26T11:52:53;102621.80;;;5.52
66403;BMP180;53212;52.112;5.144;2023-02-26T11:55:37;102619.20;;;5.60
66403;BMP180;53212;52.112;5.144;2023-02-26T11:58:16;102620.00;;;5.70
66403;BMP180;53212;52.112;5.144;2023-02-26T12:00:43;102620.00;;;5.80
66403;BMP180;53212;52.112;5.144;2023-02-26T12:03:20;102633.00;;;5.80
66403;BMP180;53212;52.112;5.144;2023-02-26T12:05:47;102628.00;;;5.90
66403;BMP180;53212;52.112;5.144;2023-02-26T12:08:28;102627.00;;;6.00
66403;BMP180;53212;52.112;5.144;2023-02-26T12:14:20;102619.60;;;6.00
66403;BMP180;53212;52.112;5.144;2023-02-26T12:19:55;102627.40;;;6.10
66403;BMP180;53212;52.112;5.144;2023-02-26T12:28:55;102639.80;;;6.00
66403;BMP180;53212;52.112;5.144;2023-02-26T12:31:59;102625.40;;;6.00
66403;BMP180;53212;52.112;5.144;2023-02-26T12:34:36;102624.20;;;6.00
66403;BMP180;53212;52.112;5.144;2023-02-26T12:37:40;102622.40;;;6.00
66403;BMP180;53212;52.112;5.144;2023-02-26T12:40:49;102620.40;;;6.10
66403;BMP180;53212;52.112;5.144;2023-02-26T12:49:53;102623.80;;;6.30
66403;BMP180;53212;52.112;5.144;2023-02-26T13:01:47;102621.00;;;6.40
66403;BMP180;53212;52.112;5.144;2023-02-26T13:05:13;102621.60;;;6.50
66403;BMP180;53212;52.112;5.144;2023-02-26T13:07:58;102616.60;;;6.60
66403;BMP180;53212;52.112;5.144;2023-02-26T13:10:56;102618.40;;;6.70
66403;BMP180;53212;52.112;5.144;2023-02-26T13:21:35;102617.20;;;7.40
66403;BMP180;53212;52.112;5.144;2023-02-26T13:24:14;102622.20;;;7.50
66403;BMP180;53212;52.112;5.144;2023-02-26T13:26:43;102620.20;;;7.40
66403;BMP180;53212;52.112;5.144;2023-02-26T13:32:03;102621.00;;;7.00
66403;BMP180;53212;52.112;5.144;2023-02-26T13:34:53;102623.80;;;6.90
66403;BMP180;53212;52.112;5.144;2023-02-26T13:37:32;102619.40;;;6.80
66403;BMP180;53212;52.112;5.144;2023-02-26T13:51:32;102620.80;;;6.56
66403;BMP180;53212;52.112;5.144;2023-02-26T13:54:27;102613.40;;;6.60
66403;BMP180;53212;52.112;5.144;2023-02-26T14:07:16;102607.60;;;6.90
66403;BMP180;53212;52.112;5.144;2023-02-26T14:10:14;102608.60;;;6.90
66403;BMP180;53212;52.112;5.144;2023-02-26T14:13:19;102612.80;;;7.00
66403;BMP180;53212;52.112;5.144;2023-02-26T14:16:08;102615.20;;;7.10
66403;BMP180;53212;52.112;5.144;2023-02-26T14:24:37;102611.60;;;7.20
66403;BMP180;53212;52.112;5.144;2023-02-26T14:29:58;102619.80;;;7.30
66403;BMP180;53212;52.112;5.144;2023-02-26T14:35:33;102620.20;;;7.44
66403;BMP180;53212;52.112;5.144;2023-02-26T14:38:22;102615.80;;;7.50
66403;BMP180;53212;52.112;5.144;2023-02-26T14:44:17;102617.60;;;7.54
66403;BMP180;53212;52.112;5.144;2023-02-26T14:46:45;102613.00;;;7.50
66403;BMP180;53212;52.112;5.144;2023-02-26T14:49:32;102620.80;;;7.34
66403;BMP180;53212;52.112;5.144;2023-02-26T14:55:22;102621.40;;;7.10
66403;BMP180;53212;52.112;5.144;2023-02-26T14:58:08;102621.40;;;7.10
66403;BMP180;53212;52.112;5.144;2023-02-26T15:00:52;102622.80;;;7.20
66403;BMP180;53212;52.112;5.144;2023-02-26T15:03:55;102629.60;;;7.20
66403;BMP180;53212;52.112;5.144;2023-02-26T15:09:19;102626.20;;;7.40
66403;BMP180;53212;52.112;5.144;2023-02-26T15:17:47;102641.00;;;7.40
66403;BMP180;53212;52.112;5.144;2023-02-26T15:23:46;102631.60;;;7.04
66403;BMP180;53212;52.112;5.144;2023-02-26T15:28:48;102628.80;;;7.00
66403;BMP180;53212;52.112;5.144;2023-02-26T15:31:15;102630.80;;;7.00
66403;BMP180;53212;52.112;5.144;2023-02-26T15:33:42;102635.00;;;7.00
66403;BMP180;53212;52.112;5.144;2023-02-26T15:36:18;102626.60;;;7.00
66403;BMP180;53212;52.112;5.144;2023-02-26T15:38:54;102633.60;;;7.00
66403;BMP180;53212;52.112;5.144;2023-02-26T15:41:22;102633.40;;;7.00
66403;BMP180;53212;52.112;5.144;2023-02-26T15:43:55;102638.80;;;7.00
66403;BMP180;53212;52.112;5.144;2023-02-26T15:46:28;102636.60;;;6.96
66403;BMP180;53212;52.112;5.144;2023-02-26T15:49:05;102640.80;;;6.90
66403;BMP180;53212;52.112;5.144;2023-02-26T15:51:31;102639.00;;;6.90
66403;BMP180;53212;52.112;5.144;2023-02-26T15:53:56;102646.60;;;6.80
66403;BMP180;53212;52.112;5.144;2023-02-26T15:56:34;102643.60;;;6.80
66403;BMP180;53212;52.112;5.144;2023-02-26T15:59:10;102651.00;;;6.80
66403;BMP180;53212;52.112;5.144;2023-02-26T16:01:39;102642.40;;;6.70
66403;BMP180;53212;52.112;5.144;2023-02-26T16:04:12;102643.40;;;6.70
66403;BMP180;53212;52.112;5.144;2023-02-26T16:07:04;102646.60;;;6.66
66403;BMP180;53212;52.112;5.144;2023-02-26T16:09:34;102648.40;;;6.60
66403;BMP180;53212;52.112;5.144;2023-02-26T16:12:41;102657.60;;;6.48
66403;BMP180;53212;52.112;5.144;2023-02-26T16:15:28;102652.00;;;6.22
66403;BMP180;53212;52.112;5.144;2023-02-26T16:17:56;102657.20;;;6.10
66403;BMP180;53212;52.112;5.144;2023-02-26T16:20:26;102655.60;;;6.00
66403;BMP180;53212;52.112;5.144;2023-02-26T16:23:01;102649.60;;;5.90
66403;BMP180;53212;52.112;5.144;2023-02-26T16:25:34;102662.60;;;5.80
66403;BMP180;53212;52.112;5.144;2023-02-26T16:28:32;102661.40;;;5.70
66403;BMP180;53212;52.112;5.144;2023-02-26T16:31:02;102668.20;;;5.70
66403;BMP180;53212;52.112;5.144;2023-02-26T16:33:33;102671.40;;;5.60
66403;BMP180;53212;52.112;5.144;2023-02-26T16:36:14;102665.00;;;5.54
66403;BMP180;53212;52.112;5.144;2023-02-26T16:39:00;102669.20;;;5.50
66403;BMP180;53212;52.112;5.144;2023-02-26T16:41:30;102676.40;;;5.48
66403;BMP180;53212;52.112;5.144;2023-02-26T16:44:00;102678.80;;;5.40
66403;BMP180;53212;52.112;5.144;2023-02-26T16:46:42;102678.40;;;5.30
66403;BMP180;53212;52.112;5.144;2023-02-26T16:51:39;102679.60;;;5.20
66403;BMP180;53212;52.112;5.144;2023-02-26T16:54:18;102682.40;;;5.20
66403;BMP180;53212;52.112;5.144;2023-02-26T16:56:46;102682.40;;;5.10
66403;BMP180;53212;52.112;5.144;2023-02-26T16:59:23;102688.00;;;5.06
66403;BMP180;53212;52.112;5.144;2023-02-26T17:01:57;102695.60;;;5.00
66403;BMP180;53212;52.112;5.144;2023-02-26T17:04:31;102703.40;;;4.94